sensor_id;sensor_type;location;lat;lon;timestamp;P1;durP1;ratioP1;P2;durP2;ratioP2
81219;SDS011;70690;52.494;13.410;2023-07-13T00:00:11;5.65;;;2.67;;
81219;SDS011;70690;52.494;13.410;2023-07-13T00:05:06;5.05;;;2.55;;
81219;SDS011;70690;52.494;13.410;2023-07-13T00:07:32;4.45;;;2.80;;
81219;SDS011;70690;52.494;13.410;2023-07-13T00:09:58;5.63;;;3.05;;
81219;SDS011;70690;52.494;13.410;2023-07-13T00:12:27;7.28;;;2.83;;
81219;SDS011;70690;52.494;13.410;2023-07-13T00:14:56;5.60;;;2.92;;
81219;SDS011;70690;52.494;13.410;2023-07-13T00:17:22;4.63;;;2.50;;
81219;SDS011;70690;52.494;13.410;2023-07-13T00:19:48;4.45;;;2.30;;
81219;SDS011;70690;52.494;13.410;2023-07-13T00:22:14;5.22;;;2.65;;
81219;SDS011;70690;52.494;13.410;2023-07-13T00:24:40;6.80;;;2.65;;
81219;SDS011;70690;52.494;13.410;2023-07-13T00:27:07;4.45;;;2.63;;
81219;SDS011;70690;52.494;13.410;2023-07-13T00:29:34;4.97;;;2.80;;
81219;SDS011;70690;52.494;13.410;2023-07-13T00:32:01;5.53;;;2.42;;
81219;SDS011;70690;52.494;13.410;2023-07-13T00:34:29;4.55;;;2.30;;
81219;SDS011;70690;52.494;13.410;2023-07-13T00:36:55;5.60;;;2.60;;
81219;SDS011;70690;52.494;13.410;2023-07-13T00:39:21;4.88;;;2.60;;
81219;SDS011;70690;52.494;13.410;2023-07-13T00:41:48;7.03;;;2.80;;
81219;SDS011;70690;52.494;13.410;2023-07-13T00:44:14;4.18;;;2.50;;
81219;SDS011;70690;52.494;13.410;2023-07-13T00:46:41;6.68;;;2.90;;
81219;SDS011;70690;52.494;13.410;2023-07-13T00:49:08;6.88;;;2.80;;
81219;SDS011;70690;52.494;13.410;2023-07-13T00:51:45;5.22;;;2.67;;
81219;SDS011;70690;52.494;13.410;2023-07-13T00:54:15;4.85;;;2.70;;
81219;SDS011;70690;52.494;13.410;2023-07-13T00:57:01;6.65;;;2.70;;
81219;SDS011;70690;52.494;13.410;2023-07-13T01:01:55;4.85;;;2.53;;
81219;SDS011;70690;52.494;13.410;2023-07-13T01:04:23;7.03;;;2.92;;
81219;SDS011;70690;52.494;13.410;2023-07-13T01:06:50;6.07;;;2.70;;
81219;SDS011;70690;52.494;13.410;2023-07-13T01:09:16;9.38;;;3.00;;
81219;SDS011;70690;52.494;13.410;2023-07-13T01:11:43;4.05;;;2.60;;
81219;SDS011;70690;52.494;13.410;2023-07-13T01:14:10;4.55;;;2.42;;
81219;SDS011;70690;52.494;13.410;2023-07-13T01:16:36;4.50;;;2.63;;
81219;SDS011;70690;52.494;13.410;2023-07-13T01:19:06;6.28;;;3.10;;
81219;SDS011;70690;52.494;13.410;2023-07-13T01:22:01;3.60;;;2.60;;
81219;SDS011;70690;52.494;13.410;2023-07-13T01:24:28;8.43;;;3.08;;
81219;SDS011;70690;52.494;13.410;2023-07-13T01:26:54;4.13;;;2.80;;
81219;SDS011;70690;52.494;13.410;2023-07-13T01:29:20;5.95;;;2.72;;
81219;SDS011;70690;52.494;13.410;2023-07-13T01:31:46;5.05;;;2.78;;
81219;SDS011;70690;52.494;13.410;2023-07-13T01:34:12;5.20;;;2.72;;
81219;SDS011;70690;52.494;13.410;2023-07-13T01:36:38;4.65;;;2.85;;
81219;SDS011;70690;52.494;13.410;2023-07-13T01:39:04;4.97;;;2.80;;
81219;SDS011;70690;52.494;13.410;2023-07-13T01:41:29;4.93;;;2.70;;
81219;SDS011;70690;52.494;13.410;2023-07-13T01:43:55;4.20;;;2.60;;
81219;SDS011;70690;52.494;13.410;2023-07-13T01:46:21;6.03;;;3.30;;
81219;SDS011;70690;52.494;13.410;2023-07-13T01:48:47;5.97;;;2.90;;
81219;SDS011;70690;52.494;13.410;2023-07-13T01:51:12;6.28;;;2.80;;
81219;SDS011;70690;52.494;13.410;2023-07-13T01:53:38;5.03;;;3.13;;
81219;SDS011;70690;52.494;13.410;2023-07-13T01:56:04;8.60;;;3.40;;
81219;SDS011;70690;52.494;13.410;2023-07-13T01:58:30;6.95;;;3.10;;
81219;SDS011;70690;52.494;13.410;2023-07-13T02:00:55;7.22;;;2.90;;
81219;SDS011;70690;52.494;13.410;2023-07-13T02:03:21;7.38;;;2.80;;
81219;SDS011;70690;52.494;13.410;2023-07-13T02:05:47;7.30;;;2.90;;
81219;SDS011;70690;52.494;13.410;2023-07-13T02:08:12;8.38;;;3.22;;
81219;SDS011;70690;52.494;13.410;2023-07-13T02:10:38;7.78;;;3.20;;
81219;SDS011;70690;52.494;13.410;2023-07-13T02:13:05;5.65;;;2.90;;
81219;SDS011;70690;52.494;13.410;2023-07-13T02:15:32;3.85;;;2.75;;
81219;SDS011;70690;52.494;13.410;2023-07-13T02:17:57;6.47;;;3.25;;
81219;SDS011;70690;52.494;13.410;2023-07-13T02:20:24;5.90;;;2.80;;
81219;SDS011;70690;52.494;13.410;2023-07-13T02:22:51;5.15;;;3.05;;
81219;SDS011;70690;52.494;13.410;2023-07-13T02:25:17;5.97;;;2.90;;
81219;SDS011;70690;52.494;13.410;2023-07-13T02:27:42;5.90;;;2.85;;
81219;SDS011;70690;52.494;13.410;2023-07-13T02:30:08;7.00;;;3.20;;
81219;SDS011;70690;52.494;13.410;2023-07-13T02:32:35;7.03;;;2.80;;
81219;SDS011;70690;52.494;13.410;2023-07-13T02:35:01;7.18;;;3.22;;
81219;SDS011;70690;52.494;13.410;2023-07-13T02:37:28;6.10;;;3.20;;
81219;SDS011;70690;52.494;13.410;2023-07-13T02:39:54;4.70;;;3.15;;
81219;SDS011;70690;52.494;13.410;2023-07-13T02:42:20;4.65;;;3.10;;
81219;SDS011;70690;52.494;13.410;2023-07-13T02:44:46;6.88;;;3.28;;
81219;SDS011;70690;52.494;13.410;2023-07-13T02:47:12;6.15;;;3.15;;
81219;SDS011;70690;52.494;13.410;2023-07-13T02:49:38;9.27;;;3.35;;
81219;SDS011;70690;52.494;13.410;2023-07-13T02:52:04;5.05;;;3.20;;
81219;SDS011;70690;52.494;13.410;2023-07-13T02:54:30;8.30;;;3.55;;
81219;SDS011;70690;52.494;13.410;2023-07-13T02:56:56;5.38;;;3.13;;
81219;SDS011;70690;52.494;13.410;2023-07-13T02:59:21;10.73;;;3.40;;
81219;SDS011;70690;52.494;13.410;2023-07-13T03:01:47;5.65;;;3.30;;
81219;SDS011;70690;52.494;13.410;2023-07-13T03:04:13;11.70;;;4.00;;
81219;SDS011;70690;52.494;13.410;2023-07-13T03:06:38;5.82;;;3.40;;
81219;SDS011;70690;52.494;13.410;2023-07-13T03:09:04;4.68;;;3.58;;
81219;SDS011;70690;52.494;13.410;2023-07-13T03:11:30;4.90;;;2.90;;
81219;SDS011;70690;52.494;13.410;2023-07-13T03:13:56;6.55;;;3.75;;
81219;SDS011;70690;52.494;13.410;2023-07-13T03:16:22;7.65;;;3.35;;
81219;SDS011;70690;52.494;13.410;2023-07-13T03:18:48;7.25;;;3.70;;
81219;SDS011;70690;52.494;13.410;2023-07-13T03:21:14;7.03;;;3.10;;
81219;SDS011;70690;52.494;13.410;2023-07-13T03:23:41;11.55;;;3.78;;
81219;SDS011;70690;52.494;13.410;2023-07-13T03:26:08;6.32;;;3.70;;
81219;SDS011;70690;52.494;13.410;2023-07-13T03:28:36;9.10;;;3.30;;
81219;SDS011;70690;52.494;13.410;2023-07-13T03:31:02;5.90;;;3.10;;
81219;SDS011;70690;52.494;13.410;2023-07-13T03:33:30;7.50;;;3.80;;
81219;SDS011;70690;52.494;13.410;2023-07-13T03:35:56;7.57;;;3.55;;
81219;SDS011;70690;52.494;13.410;2023-07-13T03:38:22;6.22;;;3.00;;
81219;SDS011;70690;52.494;13.410;2023-07-13T03:40:48;4.57;;;3.22;;
81219;SDS011;70690;52.494;13.410;2023-07-13T03:43:14;5.22;;;3.33;;
81219;SDS011;70690;52.494;13.410;2023-07-13T03:45:40;9.27;;;3.75;;
81219;SDS011;70690;52.494;13.410;2023-07-13T03:48:06;6.57;;;3.35;;
81219;SDS011;70690;52.494;13.410;2023-07-13T03:50:31;6.57;;;3.10;;
81219;SDS011;70690;52.494;13.410;2023-07-13T03:52:57;6.68;;;2.90;;
81219;SDS011;70690;52.494;13.410;2023-07-13T03:55:24;5.53;;;3.00;;
81219;SDS011;70690;52.494;13.410;2023-07-13T03:57:58;4.82;;;3.20;;
81219;SDS011;70690;52.494;13.410;2023-07-13T04:00:26;4.55;;;2.83;;
81219;SDS011;70690;52.494;13.410;2023-07-13T04:02:51;8.82;;;2.90;;
81219;SDS011;70690;52.494;13.410;2023-07-13T04:05:17;5.60;;;2.67;;
81219;SDS011;70690;52.494;13.410;2023-07-13T04:07:43;6.57;;;3.00;;
81219;SDS011;70690;52.494;13.410;2023-07-13T04:10:09;3.95;;;2.88;;
81219;SDS011;70690;52.494;13.410;2023-07-13T04:12:35;4.65;;;2.95;;
81219;SDS011;70690;52.494;13.410;2023-07-13T04:15:01;7.15;;;2.95;;
81219;SDS011;70690;52.494;13.410;2023-07-13T04:17:27;5.93;;;2.78;;
81219;SDS011;70690;52.494;13.410;2023-07-13T04:19:52;4.70;;;2.70;;
81219;SDS011;70690;52.494;13.410;2023-07-13T04:22:18;4.82;;;3.08;;
81219;SDS011;70690;52.494;13.410;2023-07-13T04:24:44;4.43;;;2.63;;
81219;SDS011;70690;52.494;13.410;2023-07-13T04:27:09;5.80;;;2.70;;
81219;SDS011;70690;52.494;13.410;2023-07-13T04:29:35;5.30;;;2.70;;
81219;SDS011;70690;52.494;13.410;2023-07-13T04:32:01;5.28;;;2.40;;
81219;SDS011;70690;52.494;13.410;2023-07-13T04:34:26;6.32;;;2.67;;
81219;SDS011;70690;52.494;13.410;2023-07-13T04:36:52;6.00;;;2.83;;
81219;SDS011;70690;52.494;13.410;2023-07-13T04:39:18;9.48;;;2.70;;
81219;SDS011;70690;52.494;13.410;2023-07-13T04:41:44;4.57;;;2.50;;
81219;SDS011;70690;52.494;13.410;2023-07-13T04:44:12;16.25;;;3.80;;
81219;SDS011;70690;52.494;13.410;2023-07-13T04:46:40;4.22;;;2.28;;
81219;SDS011;70690;52.494;13.410;2023-07-13T04:49:05;5.35;;;2.35;;
81219;SDS011;70690;52.494;13.410;2023-07-13T04:51:31;9.18;;;2.80;;
81219;SDS011;70690;52.494;13.410;2023-07-13T04:53:57;7.55;;;2.80;;
81219;SDS011;70690;52.494;13.410;2023-07-13T04:56:22;4.38;;;2.35;;
81219;SDS011;70690;52.494;13.410;2023-07-13T04:58:48;3.63;;;2.38;;
81219;SDS011;70690;52.494;13.410;2023-07-13T05:01:14;11.15;;;3.42;;
81219;SDS011;70690;52.494;13.410;2023-07-13T05:03:39;4.38;;;2.60;;
81219;SDS011;70690;52.494;13.410;2023-07-13T05:06:06;4.60;;;2.60;;
81219;SDS011;70690;52.494;13.410;2023-07-13T05:08:34;4.95;;;2.65;;
81219;SDS011;70690;52.494;13.410;2023-07-13T05:11:01;6.72;;;2.53;;
81219;SDS011;70690;52.494;13.410;2023-07-13T05:13:27;4.22;;;2.42;;
81219;SDS011;70690;52.494;13.410;2023-07-13T05:16:00;4.47;;;2.60;;
81219;SDS011;70690;52.494;13.410;2023-07-13T05:18:27;4.53;;;2.13;;
81219;SDS011;70690;52.494;13.410;2023-07-13T05:20:56;7.25;;;2.65;;
81219;SDS011;70690;52.494;13.410;2023-07-13T05:23:23;8.40;;;2.92;;
81219;SDS011;70690;52.494;13.410;2023-07-13T05:25:48;4.47;;;2.45;;
81219;SDS011;70690;52.494;13.410;2023-07-13T05:28:14;3.10;;;2.25;;
81219;SDS011;70690;52.494;13.410;2023-07-13T05:30:44;6.30;;;2.60;;
81219;SDS011;70690;52.494;13.410;2023-07-13T05:33:11;7.55;;;2.70;;
81219;SDS011;70690;52.494;13.410;2023-07-13T05:35:37;14.25;;;3.10;;
81219;SDS011;70690;52.494;13.410;2023-07-13T05:38:02;8.77;;;3.00;;
81219;SDS011;70690;52.494;13.410;2023-07-13T05:40:28;12.18;;;3.20;;
81219;SDS011;70690;52.494;13.410;2023-07-13T05:42:54;10.25;;;3.33;;
81219;SDS011;70690;52.494;13.410;2023-07-13T05:45:19;20.40;;;4.20;;
81219;SDS011;70690;52.494;13.410;2023-07-13T05:47:45;4.07;;;2.53;;
81219;SDS011;70690;52.494;13.410;2023-07-13T05:50:11;6.60;;;2.60;;
81219;SDS011;70690;52.494;13.410;2023-07-13T05:52:37;6.95;;;3.15;;
81219;SDS011;70690;52.494;13.410;2023-07-13T05:55:03;7.55;;;2.72;;
81219;SDS011;70690;52.494;13.410;2023-07-13T05:57:29;10.60;;;2.80;;
81219;SDS011;70690;52.494;13.410;2023-07-13T05:59:55;9.80;;;3.03;;
81219;SDS011;70690;52.494;13.410;2023-07-13T06:02:21;8.05;;;2.83;;
81219;SDS011;70690;52.494;13.410;2023-07-13T06:04:47;5.65;;;2.70;;
81219;SDS011;70690;52.494;13.410;2023-07-13T06:07:12;7.00;;;3.10;;
81219;SDS011;70690;52.494;13.410;2023-07-13T06:09:38;4.18;;;2.50;;
81219;SDS011;70690;52.494;13.410;2023-07-13T06:12:04;3.42;;;2.22;;
81219;SDS011;70690;52.494;13.410;2023-07-13T06:14:30;11.95;;;3.63;;
81219;SDS011;70690;52.494;13.410;2023-07-13T06:16:55;6.20;;;2.72;;
81219;SDS011;70690;52.494;13.410;2023-07-13T06:19:21;7.57;;;2.72;;
81219;SDS011;70690;52.494;13.410;2023-07-13T06:21:47;7.18;;;2.50;;
81219;SDS011;70690;52.494;13.410;2023-07-13T06:24:12;3.97;;;2.40;;
81219;SDS011;70690;52.494;13.410;2023-07-13T06:26:38;4.10;;;2.28;;
81219;SDS011;70690;52.494;13.410;2023-07-13T06:29:04;4.18;;;2.40;;
81219;SDS011;70690;52.494;13.410;2023-07-13T06:31:30;6.35;;;2.80;;
81219;SDS011;70690;52.494;13.410;2023-07-13T06:33:56;4.95;;;2.65;;
81219;SDS011;70690;52.494;13.410;2023-07-13T06:36:22;3.47;;;2.55;;
81219;SDS011;70690;52.494;13.410;2023-07-13T06:38:47;9.68;;;2.60;;
81219;SDS011;70690;52.494;13.410;2023-07-13T06:41:13;7.05;;;2.55;;
81219;SDS011;70690;52.494;13.410;2023-07-13T06:43:39;6.80;;;2.88;;
81219;SDS011;70690;52.494;13.410;2023-07-13T06:46:05;2.90;;;2.30;;
81219;SDS011;70690;52.494;13.410;2023-07-13T06:48:33;6.68;;;2.85;;
81219;SDS011;70690;52.494;13.410;2023-07-13T06:50:59;5.95;;;2.80;;
81219;SDS011;70690;52.494;13.410;2023-07-13T06:53:25;4.35;;;2.38;;
81219;SDS011;70690;52.494;13.410;2023-07-13T06:55:50;7.75;;;2.65;;
81219;SDS011;70690;52.494;13.410;2023-07-13T06:58:18;7.55;;;2.30;;
81219;SDS011;70690;52.494;13.410;2023-07-13T07:00:45;7.88;;;2.40;;
81219;SDS011;70690;52.494;13.410;2023-07-13T07:03:11;4.95;;;2.33;;
81219;SDS011;70690;52.494;13.410;2023-07-13T07:05:37;4.88;;;2.30;;
81219;SDS011;70690;52.494;13.410;2023-07-13T07:08:03;7.03;;;2.22;;
81219;SDS011;70690;52.494;13.410;2023-07-13T07:10:29;5.45;;;2.30;;
81219;SDS011;70690;52.494;13.410;2023-07-13T07:12:55;12.20;;;2.72;;
81219;SDS011;70690;52.494;13.410;2023-07-13T07:15:21;9.32;;;2.58;;
81219;SDS011;70690;52.494;13.410;2023-07-13T07:17:50;2.38;;;1.70;;
81219;SDS011;70690;52.494;13.410;2023-07-13T07:20:16;2.33;;;1.50;;
81219;SDS011;70690;52.494;13.410;2023-07-13T07:22:42;8.43;;;2.30;;
81219;SDS011;70690;52.494;13.410;2023-07-13T07:25:07;8.95;;;2.30;;
81219;SDS011;70690;52.494;13.410;2023-07-13T07:27:33;4.10;;;2.13;;
81219;SDS011;70690;52.494;13.410;2023-07-13T07:29:59;7.30;;;2.20;;
81219;SDS011;70690;52.494;13.410;2023-07-13T07:32:25;5.60;;;2.03;;
81219;SDS011;70690;52.494;13.410;2023-07-13T07:34:51;9.20;;;2.20;;
81219;SDS011;70690;52.494;13.410;2023-07-13T07:37:17;3.60;;;1.70;;
81219;SDS011;70690;52.494;13.410;2023-07-13T07:39:43;4.00;;;1.85;;
81219;SDS011;70690;52.494;13.410;2023-07-13T07:42:09;2.70;;;1.92;;
81219;SDS011;70690;52.494;13.410;2023-07-13T07:44:35;4.32;;;1.65;;
81219;SDS011;70690;52.494;13.410;2023-07-13T07:47:01;3.67;;;1.85;;
81219;SDS011;70690;52.494;13.410;2023-07-13T07:49:27;5.75;;;1.77;;
81219;SDS011;70690;52.494;13.410;2023-07-13T07:51:52;10.10;;;2.20;;
81219;SDS011;70690;52.494;13.410;2023-07-13T07:54:18;5.15;;;1.90;;
81219;SDS011;70690;52.494;13.410;2023-07-13T07:56:44;4.75;;;1.80;;
81219;SDS011;70690;52.494;13.410;2023-07-13T07:59:10;3.50;;;1.65;;
81219;SDS011;70690;52.494;13.410;2023-07-13T08:01:36;5.88;;;1.95;;
81219;SDS011;70690;52.494;13.410;2023-07-13T08:04:02;8.45;;;2.20;;
81219;SDS011;70690;52.494;13.410;2023-07-13T08:06:28;5.25;;;1.88;;
81219;SDS011;70690;52.494;13.410;2023-07-13T08:08:54;4.43;;;2.30;;
81219;SDS011;70690;52.494;13.410;2023-07-13T08:11:20;3.50;;;2.00;;
81219;SDS011;70690;52.494;13.410;2023-07-13T08:13:47;7.57;;;1.95;;
81219;SDS011;70690;52.494;13.410;2023-07-13T08:16:13;3.20;;;1.77;;
81219;SDS011;70690;52.494;13.410;2023-07-13T08:18:41;5.35;;;1.95;;
81219;SDS011;70690;52.494;13.410;2023-07-13T08:21:08;3.40;;;1.83;;
81219;SDS011;70690;52.494;13.410;2023-07-13T08:23:34;3.47;;;1.42;;
81219;SDS011;70690;52.494;13.410;2023-07-13T08:26:01;3.53;;;1.83;;
81219;SDS011;70690;52.494;13.410;2023-07-13T08:28:27;6.75;;;2.20;;
81219;SDS011;70690;52.494;13.410;2023-07-13T08:30:53;5.50;;;2.00;;
81219;SDS011;70690;52.494;13.410;2023-07-13T08:33:20;3.47;;;1.75;;
81219;SDS011;70690;52.494;13.410;2023-07-13T08:35:49;2.92;;;1.92;;
81219;SDS011;70690;52.494;13.410;2023-07-13T08:38:16;4.90;;;1.77;;
81219;SDS011;70690;52.494;13.410;2023-07-13T08:40:42;4.13;;;1.70;;
81219;SDS011;70690;52.494;13.410;2023-07-13T08:43:13;5.55;;;2.00;;
81219;SDS011;70690;52.494;13.410;2023-07-13T08:48:23;6.88;;;1.88;;
81219;SDS011;70690;52.494;13.410;2023-07-13T08:53:54;3.92;;;1.95;;
81219;SDS011;70690;52.494;13.410;2023-07-13T08:56:24;3.90;;;1.73;;
81219;SDS011;70690;52.494;13.410;2023-07-13T08:58:56;5.72;;;2.33;;
81219;SDS011;70690;52.494;13.410;2023-07-13T09:05:04;3.70;;;1.70;;
81219;SDS011;70690;52.494;13.410;2023-07-13T09:07:52;8.82;;;2.55;;
81219;SDS011;70690;52.494;13.410;2023-07-13T09:10:28;7.13;;;2.03;;
81219;SDS011;70690;52.494;13.410;2023-07-13T09:13:00;5.90;;;2.05;;
81219;SDS011;70690;52.494;13.410;2023-07-13T09:15:47;7.07;;;1.88;;
81219;SDS011;70690;52.494;13.410;2023-07-13T09:18:18;2.90;;;1.75;;
81219;SDS011;70690;52.494;13.410;2023-07-13T09:21:14;3.80;;;1.73;;
81219;SDS011;70690;52.494;13.410;2023-07-13T09:23:47;4.75;;;1.77;;
81219;SDS011;70690;52.494;13.410;2023-07-13T09:26:21;6.38;;;1.90;;
81219;SDS011;70690;52.494;13.410;2023-07-13T09:28:49;4.00;;;1.80;;
81219;SDS011;70690;52.494;13.410;2023-07-13T09:31:28;5.07;;;1.52;;
81219;SDS011;70690;52.494;13.410;2023-07-13T09:34:06;6.03;;;1.73;;
81219;SDS011;70690;52.494;13.410;2023-07-13T09:36:35;4.78;;;1.98;;
81219;SDS011;70690;52.494;13.410;2023-07-13T09:46:36;5.30;;;2.33;;
81219;SDS011;70690;52.494;13.410;2023-07-13T09:49:04;4.85;;;2.55;;
81219;SDS011;70690;52.494;13.410;2023-07-13T09:51:30;5.00;;;2.50;;
81219;SDS011;70690;52.494;13.410;2023-07-13T09:53:55;8.32;;;3.20;;
81219;SDS011;70690;52.494;13.410;2023-07-13T09:56:23;7.72;;;2.72;;
81219;SDS011;70690;52.494;13.410;2023-07-13T09:58:51;4.60;;;2.78;;
81219;SDS011;70690;52.494;13.410;2023-07-13T10:01:31;6.28;;;2.70;;
81219;SDS011;70690;52.494;13.410;2023-07-13T10:04:10;7.65;;;3.25;;
81219;SDS011;70690;52.494;13.410;2023-07-13T10:06:38;6.07;;;3.22;;
81219;SDS011;70690;52.494;13.410;2023-07-13T10:09:08;6.72;;;3.15;;
81219;SDS011;70690;52.494;13.410;2023-07-13T10:11:35;4.47;;;2.88;;
81219;SDS011;70690;52.494;13.410;2023-07-13T10:14:03;5.75;;;3.00;;
81219;SDS011;70690;52.494;13.410;2023-07-13T10:16:39;7.45;;;2.70;;
81219;SDS011;70690;52.494;13.410;2023-07-13T10:21:53;4.63;;;2.65;;
81219;SDS011;70690;52.494;13.410;2023-07-13T10:24:25;8.82;;;2.65;;
81219;SDS011;70690;52.494;13.410;2023-07-13T10:27:09;5.75;;;2.78;;
81219;SDS011;70690;52.494;13.410;2023-07-13T10:32:17;6.50;;;2.40;;
81219;SDS011;70690;52.494;13.410;2023-07-13T10:34:47;5.63;;;2.83;;
81219;SDS011;70690;52.494;13.410;2023-07-13T10:37:19;3.88;;;2.30;;
81219;SDS011;70690;52.494;13.410;2023-07-13T10:39:51;3.30;;;2.45;;
81219;SDS011;70690;52.494;13.410;2023-07-13T10:42:54;8.23;;;2.90;;
81219;SDS011;70690;52.494;13.410;2023-07-13T10:45:16;6.97;;;2.70;;
81219;SDS011;70690;52.494;13.410;2023-07-13T10:47:47;7.55;;;2.60;;
81219;SDS011;70690;52.494;13.410;2023-07-13T10:50:16;6.05;;;2.55;;
81219;SDS011;70690;52.494;13.410;2023-07-13T10:52:48;9.45;;;2.45;;
81219;SDS011;70690;52.494;13.410;2023-07-13T10:58:10;10.48;;;3.13;;
81219;SDS011;70690;52.494;13.410;2023-07-13T11:00:43;4.15;;;2.20;;
81219;SDS011;70690;52.494;13.410;2023-07-13T11:03:19;6.03;;;2.50;;
81219;SDS011;70690;52.494;13.410;2023-07-13T11:05:48;3.85;;;2.33;;
81219;SDS011;70690;52.494;13.410;2023-07-13T11:08:35;6.57;;;2.40;;
81219;SDS011;70690;52.494;13.410;2023-07-13T11:11:07;3.97;;;2.22;;
81219;SDS011;70690;52.494;13.410;2023-07-13T11:18:48;3.95;;;2.42;;
81219;SDS011;70690;52.494;13.410;2023-07-13T11:21:41;6.63;;;2.75;;
81219;SDS011;70690;52.494;13.410;2023-07-13T11:27:24;6.50;;;2.88;;
81219;SDS011;70690;52.494;13.410;2023-07-13T11:30:07;5.55;;;2.60;;
81219;SDS011;70690;52.494;13.410;2023-07-13T11:32:45;3.60;;;2.42;;
81219;SDS011;70690;52.494;13.410;2023-07-13T11:35:39;7.20;;;2.75;;
81219;SDS011;70690;52.494;13.410;2023-07-13T11:38:19;3.70;;;2.17;;
81219;SDS011;70690;52.494;13.410;2023-07-13T11:43:40;4.88;;;2.75;;
81219;SDS011;70690;52.494;13.410;2023-07-13T11:46:23;4.75;;;2.78;;
81219;SDS011;70690;52.494;13.410;2023-07-13T11:48:53;3.90;;;2.65;;
81219;SDS011;70690;52.494;13.410;2023-07-13T11:51:31;8.65;;;2.70;;
81219;SDS011;70690;52.494;13.410;2023-07-13T11:54:03;10.25;;;2.55;;
81219;SDS011;70690;52.494;13.410;2023-07-13T11:56:31;7.03;;;2.65;;
81219;SDS011;70690;52.494;13.410;2023-07-13T11:59:03;4.25;;;2.60;;
81219;SDS011;70690;52.494;13.410;2023-07-13T12:01:32;4.55;;;2.60;;
81219;SDS011;70690;52.494;13.410;2023-07-13T12:04:02;4.63;;;2.20;;
81219;SDS011;70690;52.494;13.410;2023-07-13T12:06:29;5.82;;;2.65;;
81219;SDS011;70690;52.494;13.410;2023-07-13T12:09:00;3.88;;;2.33;;
81219;SDS011;70690;52.494;13.410;2023-07-13T12:11:28;4.45;;;2.28;;
81219;SDS011;70690;52.494;13.410;2023-07-13T12:13:55;5.05;;;2.30;;
81219;SDS011;70690;52.494;13.410;2023-07-13T12:18:52;4.13;;;2.30;;
81219;SDS011;70690;52.494;13.410;2023-07-13T12:21:18;5.82;;;2.50;;
81219;SDS011;70690;52.494;13.410;2023-07-13T12:24:04;5.82;;;2.80;;
81219;SDS011;70690;52.494;13.410;2023-07-13T12:26:49;4.88;;;2.50;;
81219;SDS011;70690;52.494;13.410;2023-07-13T12:29:32;5.05;;;2.25;;
81219;SDS011;70690;52.494;13.410;2023-07-13T12:32:01;4.32;;;2.22;;
81219;SDS011;70690;52.494;13.410;2023-07-13T12:34:49;4.93;;;2.35;;
81219;SDS011;70690;52.494;13.410;2023-07-13T12:37:23;8.32;;;2.15;;
81219;SDS011;70690;52.494;13.410;2023-07-13T12:39:49;6.80;;;2.53;;
81219;SDS011;70690;52.494;13.410;2023-07-13T12:42:23;3.67;;;2.47;;
81219;SDS011;70690;52.494;13.410;2023-07-13T12:44:53;6.55;;;2.47;;
81219;SDS011;70690;52.494;13.410;2023-07-13T12:47:19;8.23;;;2.70;;
81219;SDS011;70690;52.494;13.410;2023-07-13T12:49:53;8.18;;;2.60;;
81219;SDS011;70690;52.494;13.410;2023-07-13T12:52:23;6.00;;;2.30;;
81219;SDS011;70690;52.494;13.410;2023-07-13T12:55:02;6.55;;;2.30;;
81219;SDS011;70690;52.494;13.410;2023-07-13T12:57:30;6.72;;;2.50;;
81219;SDS011;70690;52.494;13.410;2023-07-13T12:59:56;6.30;;;2.33;;
81219;SDS011;70690;52.494;13.410;2023-07-13T13:05:00;6.28;;;1.90;;
81219;SDS011;70690;52.494;13.410;2023-07-13T13:07:28;6.65;;;2.40;;
81219;SDS011;70690;52.494;13.410;2023-07-13T13:09:54;7.97;;;2.53;;
81219;SDS011;70690;52.494;13.410;2023-07-13T13:12:21;6.55;;;2.08;;
81219;SDS011;70690;52.494;13.410;2023-07-13T13:14:49;5.73;;;2.60;;
81219;SDS011;70690;52.494;13.410;2023-07-13T13:17:18;11.20;;;2.35;;
81219;SDS011;70690;52.494;13.410;2023-07-13T13:22:12;4.78;;;1.95;;
81219;SDS011;70690;52.494;13.410;2023-07-13T13:24:38;5.65;;;2.38;;
81219;SDS011;70690;52.494;13.410;2023-07-13T13:27:04;8.80;;;2.38;;
81219;SDS011;70690;52.494;13.410;2023-07-13T13:29:31;6.63;;;2.33;;
81219;SDS011;70690;52.494;13.410;2023-07-13T13:31:58;5.47;;;2.00;;
81219;SDS011;70690;52.494;13.410;2023-07-13T13:34:24;6.38;;;2.33;;
81219;SDS011;70690;52.494;13.410;2023-07-13T13:36:51;6.55;;;1.95;;
81219;SDS011;70690;52.494;13.410;2023-07-13T13:39:19;4.65;;;2.20;;
81219;SDS011;70690;52.494;13.410;2023-07-13T13:41:54;6.60;;;2.25;;
81219;SDS011;70690;52.494;13.410;2023-07-13T13:44:20;7.97;;;1.90;;
81219;SDS011;70690;52.494;13.410;2023-07-13T13:46:53;2.67;;;1.48;;
81219;SDS011;70690;52.494;13.410;2023-07-13T13:49:21;4.13;;;1.70;;
81219;SDS011;70690;52.494;13.410;2023-07-13T13:51:49;4.78;;;1.90;;
81219;SDS011;70690;52.494;13.410;2023-07-13T13:54:15;6.78;;;2.35;;
81219;SDS011;70690;52.494;13.410;2023-07-13T13:56:43;3.38;;;1.88;;
81219;SDS011;70690;52.494;13.410;2023-07-13T13:59:10;6.15;;;2.30;;
81219;SDS011;70690;52.494;13.410;2023-07-13T14:01:36;2.88;;;1.88;;
81219;SDS011;70690;52.494;13.410;2023-07-13T14:04:05;5.20;;;2.03;;
81219;SDS011;70690;52.494;13.410;2023-07-13T14:06:32;3.35;;;1.55;;
81219;SDS011;70690;52.494;13.410;2023-07-13T14:09:01;3.65;;;1.73;;
81219;SDS011;70690;52.494;13.410;2023-07-13T14:11:28;4.30;;;1.63;;
81219;SDS011;70690;52.494;13.410;2023-07-13T14:16:26;5.32;;;2.03;;
81219;SDS011;70690;52.494;13.410;2023-07-13T14:18:57;3.53;;;1.90;;
81219;SDS011;70690;52.494;13.410;2023-07-13T14:21:25;5.45;;;1.80;;
81219;SDS011;70690;52.494;13.410;2023-07-13T14:23:51;7.35;;;1.95;;
81219;SDS011;70690;52.494;13.410;2023-07-13T14:26:20;17.98;;;4.80;;
81219;SDS011;70690;52.494;13.410;2023-07-13T14:28:49;5.65;;;2.30;;
81219;SDS011;70690;52.494;13.410;2023-07-13T14:31:16;5.10;;;2.10;;
81219;SDS011;70690;52.494;13.410;2023-07-13T14:33:43;7.40;;;2.33;;
81219;SDS011;70690;52.494;13.410;2023-07-13T14:36:26;7.57;;;1.90;;
81219;SDS011;70690;52.494;13.410;2023-07-13T14:38:52;11.25;;;2.00;;
81219;SDS011;70690;52.494;13.410;2023-07-13T14:41:18;7.90;;;2.15;;
81219;SDS011;70690;52.494;13.410;2023-07-13T14:43:45;7.13;;;1.95;;
81219;SDS011;70690;52.494;13.410;2023-07-13T14:46:27;8.10;;;2.90;;
81219;SDS011;70690;52.494;13.410;2023-07-13T14:49:05;6.20;;;2.00;;
81219;SDS011;70690;52.494;13.410;2023-07-13T14:51:41;3.63;;;1.83;;
81219;SDS011;70690;52.494;13.410;2023-07-13T14:54:07;6.38;;;1.90;;
81219;SDS011;70690;52.494;13.410;2023-07-13T14:56:34;7.63;;;1.98;;
81219;SDS011;70690;52.494;13.410;2023-07-13T14:59:00;5.00;;;2.30;;
81219;SDS011;70690;52.494;13.410;2023-07-13T15:01:26;2.28;;;1.92;;
81219;SDS011;70690;52.494;13.410;2023-07-13T15:03:52;2.95;;;1.50;;
81219;SDS011;70690;52.494;13.410;2023-07-13T15:06:18;7.00;;;1.92;;
81219;SDS011;70690;52.494;13.410;2023-07-13T15:08:45;7.38;;;1.95;;
81219;SDS011;70690;52.494;13.410;2023-07-13T15:11:11;3.60;;;1.88;;
81219;SDS011;70690;52.494;13.410;2023-07-13T15:13:58;3.10;;;1.58;;
81219;SDS011;70690;52.494;13.410;2023-07-13T15:16:31;11.25;;;1.83;;
81219;SDS011;70690;52.494;13.410;2023-07-13T15:19:00;4.03;;;1.90;;
81219;SDS011;70690;52.494;13.410;2023-07-13T15:21:27;2.15;;;1.52;;
81219;SDS011;70690;52.494;13.410;2023-07-13T15:23:59;4.25;;;1.88;;
81219;SDS011;70690;52.494;13.410;2023-07-13T15:26:25;3.30;;;1.50;;
81219;SDS011;70690;52.494;13.410;2023-07-13T15:28:51;3.97;;;1.80;;
81219;SDS011;70690;52.494;13.410;2023-07-13T15:31:24;5.32;;;1.35;;